sensor_id;sensor_type;location;lat;lon;timestamp;P1;P2;P0
70255;PMS5003;57669;52.624;-1.688;2023-01-28T00:00:10;27;27;
70255;PMS5003;57669;52.624;-1.688;2023-01-28T00:02:35;28;25;
70255;PMS5003;57669;52.624;-1.688;2023-01-28T00:05:00;28;24;
70255;PMS5003;57669;52.624;-1.688;2023-01-28T00:07:25;24;22;
70255;PMS5003;57669;52.624;-1.688;2023-01-28T00:09:51;27;26;
70255;PMS5003;57669;52.624;-1.688;2023-01-28T00:12:17;25;24;
70255;PMS5003;57669;52.624;-1.688;2023-01-28T00:14:41;31;30;
70255;PMS5003;57669;52.624;-1.688;2023-01-28T00:17:07;30;28;
70255;PMS5003;57669;52.624;-1.688;2023-01-28T00:19:32;27;26;
70255;PMS5003;57669;52.624;-1.688;2023-01-28T00:21:57;30;30;
70255;PMS5003;57669;52.624;-1.688;2023-01-28T00:24:23;31;31;
70255;PMS5003;57669;52.624;-1.688;2023-01-28T00:26:48;40;38;
70255;PMS5003;57669;52.624;-1.688;2023-01-28T00:29:14;33;30;
70255;PMS5003;57669;52.624;-1.688;2023-01-28T00:31:39;27;27;
70255;PMS5003;57669;52.624;-1.688;2023-01-28T00:34:04;32;32;
70255;PMS5003;57669;52.624;-1.688;2023-01-28T00:38:56;32;30;
70255;PMS5003;57669;52.624;-1.688;2023-01-28T00:41:22;34;34;
70255;PMS5003;57669;52.624;-1.688;2023-01-28T00:43:46;36;34;
70255;PMS5003;57669;52.624;-1.688;2023-01-28T00:46:11;33;32;
70255;PMS5003;57669;52.624;-1.688;2023-01-28T00:48:37;32;30;
70255;PMS5003;57669;52.624;-1.688;2023-01-28T00:51:02;33;33;
70255;PMS5003;57669;52.624;-1.688;2023-01-28T00:53:28;43;42;
70255;PMS5003;57669;52.624;-1.688;2023-01-28T00:55:53;28;28;
70255;PMS5003;57669;52.624;-1.688;2023-01-28T00:58:18;37;36;
70255;PMS5003;57669;52.624;-1.688;2023-01-28T01:00:43;32;32;
70255;PMS5003;57669;52.624;-1.688;2023-01-28T01:03:09;39;39;
70255;PMS5003;57669;52.624;-1.688;2023-01-28T01:05:35;37;37;
70255;PMS5003;57669;52.624;-1.688;2023-01-28T01:08:01;36;36;
70255;PMS5003;57669;52.624;-1.688;2023-01-28T01:10:26;42;38;
70255;PMS5003;57669;52.624;-1.688;2023-01-28T01:12:52;45;41;
70255;PMS5003;57669;52.624;-1.688;2023-01-28T01:15:17;40;39;
70255;PMS5003;57669;52.624;-1.688;2023-01-28T01:17:44;38;36;
70255;PMS5003;57669;52.624;-1.688;2023-01-28T01:20:10;39;37;
70255;PMS5003;57669;52.624;-1.688;2023-01-28T01:22:34;41;40;
70255;PMS5003;57669;52.624;-1.688;2023-01-28T01:24:59;47;44;
70255;PMS5003;57669;52.624;-1.688;2023-01-28T01:29:50;35;35;
70255;PMS5003;57669;52.624;-1.688;2023-01-28T01:32:15;40;39;
70255;PMS5003;57669;52.624;-1.688;2023-01-28T01:34:40;38;38;
70255;PMS5003;57669;52.624;-1.688;2023-01-28T01:37:05;38;37;
70255;PMS5003;57669;52.624;-1.688;2023-01-28T01:39:31;37;35;
70255;PMS5003;57669;52.624;-1.688;2023-01-28T01:41:56;37;35;
70255;PMS5003;57669;52.624;-1.688;2023-01-28T01:46:48;34;32;
70255;PMS5003;57669;52.624;-1.688;2023-01-28T01:49:14;37;36;
70255;PMS5003;57669;52.624;-1.688;2023-01-28T01:51:38;47;44;
70255;PMS5003;57669;52.624;-1.688;2023-01-28T01:54:04;42;40;
70255;PMS5003;57669;52.624;-1.688;2023-01-28T01:56:31;38;37;
70255;PMS5003;57669;52.624;-1.688;2023-01-28T01:58:55;40;39;
70255;PMS5003;57669;52.624;-1.688;2023-01-28T02:01:21;40;38;
70255;PMS5003;57669;52.624;-1.688;2023-01-28T02:03:46;36;34;
70255;PMS5003;57669;52.624;-1.688;2023-01-28T02:06:11;42;40;
70255;PMS5003;57669;52.624;-1.688;2023-01-28T02:08:36;40;40;
70255;PMS5003;57669;52.624;-1.688;2023-01-28T02:11:02;40;39;
70255;PMS5003;57669;52.624;-1.688;2023-01-28T02:15:52;41;39;
70255;PMS5003;57669;52.624;-1.688;2023-01-28T02:20:48;38;35;
70255;PMS5003;57669;52.624;-1.688;2023-01-28T02:23:16;42;39;
70255;PMS5003;57669;52.624;-1.688;2023-01-28T02:25:40;39;39;
70255;PMS5003;57669;52.624;-1.688;2023-01-28T02:30:26;35;33;
70255;PMS5003;57669;52.624;-1.688;2023-01-28T02:32:50;36;36;
70255;PMS5003;57669;52.624;-1.688;2023-01-28T02:35:17;36;35;
70255;PMS5003;57669;52.624;-1.688;2023-01-28T02:37:42;31;29;
70255;PMS5003;57669;52.624;-1.688;2023-01-28T02:40:07;30;28;
70255;PMS5003;57669;52.624;-1.688;2023-01-28T02:42:31;33;32;
70255;PMS5003;57669;52.624;-1.688;2023-01-28T02:44:56;42;38;
70255;PMS5003;57669;52.624;-1.688;2023-01-28T02:47:22;37;35;
70255;PMS5003;57669;52.624;-1.688;2023-01-28T02:49:47;38;35;
70255;PMS5003;57669;52.624;-1.688;2023-01-28T02:52:15;27;26;
70255;PMS5003;57669;52.624;-1.688;2023-01-28T02:54:40;32;32;
70255;PMS5003;57669;52.624;-1.688;2023-01-28T02:57:06;36;33;
70255;PMS5003;57669;52.624;-1.688;2023-01-28T02:59:29;34;34;
70255;PMS5003;57669;52.624;-1.688;2023-01-28T03:01:55;24;24;
70255;PMS5003;57669;52.624;-1.688;2023-01-28T03:04:21;31;29;
70255;PMS5003;57669;52.624;-1.688;2023-01-28T03:06:46;35;33;
70255;PMS5003;57669;52.624;-1.688;2023-01-28T03:09:11;24;22;
70255;PMS5003;57669;52.624;-1.688;2023-01-28T03:11:38;28;28;
70255;PMS5003;57669;52.624;-1.688;2023-01-28T03:14:02;34;33;
70255;PMS5003;57669;52.624;-1.688;2023-01-28T03:16:27;30;30;
70255;PMS5003;57669;52.624;-1.688;2023-01-28T03:18:52;28;27;
70255;PMS5003;57669;52.624;-1.688;2023-01-28T03:21:18;33;33;
70255;PMS5003;57669;52.624;-1.688;2023-01-28T03:23:51;32;30;
70255;PMS5003;57669;52.624;-1.688;2023-01-28T03:26:07;29;28;
70255;PMS5003;57669;52.624;-1.688;2023-01-28T03:28:33;30;28;
70255;PMS5003;57669;52.624;-1.688;2023-01-28T03:31:00;34;31;
70255;PMS5003;57669;52.624;-1.688;2023-01-28T03:33:24;29;28;
70255;PMS5003;57669;52.624;-1.688;2023-01-28T03:35:49;28;27;
70255;PMS5003;57669;52.624;-1.688;2023-01-28T03:38:15;26;24;
70255;PMS5003;57669;52.624;-1.688;2023-01-28T03:43:05;23;22;
70255;PMS5003;57669;52.624;-1.688;2023-01-28T03:45:30;27;26;
70255;PMS5003;57669;52.624;-1.688;2023-01-28T03:47:55;26;24;
70255;PMS5003;57669;52.624;-1.688;2023-01-28T03:50:20;33;32;
70255;PMS5003;57669;52.624;-1.688;2023-01-28T03:52:46;26;24;
70255;PMS5003;57669;52.624;-1.688;2023-01-28T03:55:11;32;29;
70255;PMS5003;57669;52.624;-1.688;2023-01-28T03:57:37;25;24;
70255;PMS5003;57669;52.624;-1.688;2023-01-28T04:00:02;32;32;
70255;PMS5003;57669;52.624;-1.688;2023-01-28T04:02:27;29;28;
70255;PMS5003;57669;52.624;-1.688;2023-01-28T04:04:53;30;29;
70255;PMS5003;57669;52.624;-1.688;2023-01-28T04:07:18;28;27;
70255;PMS5003;57669;52.624;-1.688;2023-01-28T04:09:44;28;28;
70255;PMS5003;57669;52.624;-1.688;2023-01-28T04:12:10;31;28;
70255;PMS5003;57669;52.624;-1.688;2023-01-28T04:14:35;27;27;
70255;PMS5003;57669;52.624;-1.688;2023-01-28T04:17:00;33;30;
70255;PMS5003;57669;52.624;-1.688;2023-01-28T04:19:26;32;30;
70255;PMS5003;57669;52.624;-1.688;2023-01-28T04:21:51;31;30;
70255;PMS5003;57669;52.624;-1.688;2023-01-28T04:24:16;30;29;
70255;PMS5003;57669;52.624;-1.688;2023-01-28T04:26:41;27;27;
70255;PMS5003;57669;52.624;-1.688;2023-01-28T04:29:06;31;28;
70255;PMS5003;57669;52.624;-1.688;2023-01-28T04:31:32;30;29;
70255;PMS5003;57669;52.624;-1.688;2023-01-28T04:33:57;34;33;
70255;PMS5003;57669;52.624;-1.688;2023-01-28T04:36:23;34;33;
70255;PMS5003;57669;52.624;-1.688;2023-01-28T04:38:48;32;29;
70255;PMS5003;57669;52.624;-1.688;2023-01-28T04:41:13;30;30;
70255;PMS5003;57669;52.624;-1.688;2023-01-28T04:43:39;35;32;
70255;PMS5003;57669;52.624;-1.688;2023-01-28T04:46:05;30;30;
70255;PMS5003;57669;52.624;-1.688;2023-01-28T04:48:30;36;34;
70255;PMS5003;57669;52.624;-1.688;2023-01-28T04:50:56;36;33;
70255;PMS5003;57669;52.624;-1.688;2023-01-28T04:53:22;33;30;
70255;PMS5003;57669;52.624;-1.688;2023-01-28T04:55:47;34;31;
70255;PMS5003;57669;52.624;-1.688;2023-01-28T04:58:12;26;25;
70255;PMS5003;57669;52.624;-1.688;2023-01-28T05:00:38;36;34;
70255;PMS5003;57669;52.624;-1.688;2023-01-28T05:03:03;31;30;
70255;PMS5003;57669;52.624;-1.688;2023-01-28T05:05:29;30;30;
70255;PMS5003;57669;52.624;-1.688;2023-01-28T05:07:55;31;31;
70255;PMS5003;57669;52.624;-1.688;2023-01-28T05:10:20;30;27;
70255;PMS5003;57669;52.624;-1.688;2023-01-28T05:12:46;32;30;
70255;PMS5003;57669;52.624;-1.688;2023-01-28T05:15:10;28;27;
70255;PMS5003;57669;52.624;-1.688;2023-01-28T05:17:35;22;22;
70255;PMS5003;57669;52.624;-1.688;2023-01-28T05:20:00;28;27;
70255;PMS5003;57669;52.624;-1.688;2023-01-28T05:22:26;19;18;
70255;PMS5003;57669;52.624;-1.688;2023-01-28T05:24:51;16;16;
70255;PMS5003;57669;52.624;-1.688;2023-01-28T05:27:16;20;20;
70255;PMS5003;57669;52.624;-1.688;2023-01-28T05:29:42;21;21;
70255;PMS5003;57669;52.624;-1.688;2023-01-28T05:32:08;18;18;
70255;PMS5003;57669;52.624;-1.688;2023-01-28T05:34:33;25;24;
70255;PMS5003;57669;52.624;-1.688;2023-01-28T05:36:58;21;18;
70255;PMS5003;57669;52.624;-1.688;2023-01-28T05:39:23;20;19;
70255;PMS5003;57669;52.624;-1.688;2023-01-28T05:41:49;23;22;
70255;PMS5003;57669;52.624;-1.688;2023-01-28T05:44:14;27;24;
70255;PMS5003;57669;52.624;-1.688;2023-01-28T05:46:39;18;16;
70255;PMS5003;57669;52.624;-1.688;2023-01-28T05:49:04;21;19;
70255;PMS5003;57669;52.624;-1.688;2023-01-28T05:51:29;20;20;
70255;PMS5003;57669;52.624;-1.688;2023-01-28T05:53:54;20;20;
70255;PMS5003;57669;52.624;-1.688;2023-01-28T05:58:45;20;18;
70255;PMS5003;57669;52.624;-1.688;2023-01-28T06:01:11;22;21;
70255;PMS5003;57669;52.624;-1.688;2023-01-28T06:03:37;18;15;
70255;PMS5003;57669;52.624;-1.688;2023-01-28T06:06:02;17;16;
70255;PMS5003;57669;52.624;-1.688;2023-01-28T06:08:28;15;14;
70255;PMS5003;57669;52.624;-1.688;2023-01-28T06:10:54;21;19;
70255;PMS5003;57669;52.624;-1.688;2023-01-28T06:13:19;17;16;
70255;PMS5003;57669;52.624;-1.688;2023-01-28T06:15:47;18;16;
70255;PMS5003;57669;52.624;-1.688;2023-01-28T06:18:10;14;14;
70255;PMS5003;57669;52.624;-1.688;2023-01-28T06:20:36;16;16;
70255;PMS5003;57669;52.624;-1.688;2023-01-28T06:23:01;14;14;
70255;PMS5003;57669;52.624;-1.688;2023-01-28T06:25:26;19;19;
70255;PMS5003;57669;52.624;-1.688;2023-01-28T06:27:51;19;17;
70255;PMS5003;57669;52.624;-1.688;2023-01-28T06:30:16;13;13;
70255;PMS5003;57669;52.624;-1.688;2023-01-28T06:32:42;15;15;
70255;PMS5003;57669;52.624;-1.688;2023-01-28T06:35:08;13;13;
70255;PMS5003;57669;52.624;-1.688;2023-01-28T06:37:33;16;15;
70255;PMS5003;57669;52.624;-1.688;2023-01-28T06:39:59;14;14;
70255;PMS5003;57669;52.624;-1.688;2023-01-28T06:42:24;15;15;
70255;PMS5003;57669;52.624;-1.688;2023-01-28T06:44:49;15;14;
70255;PMS5003;57669;52.624;-1.688;2023-01-28T06:47:15;20;20;
70255;PMS5003;57669;52.624;-1.688;2023-01-28T06:49:40;14;14;
70255;PMS5003;57669;52.624;-1.688;2023-01-28T06:52:11;14;14;
70255;PMS5003;57669;52.624;-1.688;2023-01-28T06:54:31;18;18;
70255;PMS5003;57669;52.624;-1.688;2023-01-28T06:56:57;13;11;
70255;PMS5003;57669;52.624;-1.688;2023-01-28T06:59:22;15;15;
70255;PMS5003;57669;52.624;-1.688;2023-01-28T07:01:48;15;15;
70255;PMS5003;57669;52.624;-1.688;2023-01-28T07:04:14;13;13;
70255;PMS5003;57669;52.624;-1.688;2023-01-28T07:06:39;13;13;
70255;PMS5003;57669;52.624;-1.688;2023-01-28T07:09:04;16;16;
70255;PMS5003;57669;52.624;-1.688;2023-01-28T07:11:29;13;13;
70255;PMS5003;57669;52.624;-1.688;2023-01-28T07:13:55;14;13;
70255;PMS5003;57669;52.624;-1.688;2023-01-28T07:16:20;12;11;
70255;PMS5003;57669;52.624;-1.688;2023-01-28T07:18:46;16;16;
70255;PMS5003;57669;52.624;-1.688;2023-01-28T07:21:11;14;13;
70255;PMS5003;57669;52.624;-1.688;2023-01-28T07:23:37;14;14;
70255;PMS5003;57669;52.624;-1.688;2023-01-28T07:26:02;17;16;
70255;PMS5003;57669;52.624;-1.688;2023-01-28T07:28:27;15;15;
70255;PMS5003;57669;52.624;-1.688;2023-01-28T07:30:53;14;13;
70255;PMS5003;57669;52.624;-1.688;2023-01-28T07:33:18;12;12;
70255;PMS5003;57669;52.624;-1.688;2023-01-28T07:35:43;12;11;
70255;PMS5003;57669;52.624;-1.688;2023-01-28T07:38:09;15;13;
70255;PMS5003;57669;52.624;-1.688;2023-01-28T07:40:34;15;15;
70255;PMS5003;57669;52.624;-1.688;2023-01-28T07:43:00;19;18;
70255;PMS5003;57669;52.624;-1.688;2023-01-28T07:45:26;13;13;
70255;PMS5003;57669;52.624;-1.688;2023-01-28T07:47:53;13;13;
70255;PMS5003;57669;52.624;-1.688;2023-01-28T07:50:17;11;11;
70255;PMS5003;57669;52.624;-1.688;2023-01-28T07:52:43;15;13;
70255;PMS5003;57669;52.624;-1.688;2023-01-28T07:55:09;17;11;
70255;PMS5003;57669;52.624;-1.688;2023-01-28T07:57:33;13;13;
70255;PMS5003;57669;52.624;-1.688;2023-01-28T07:59:59;14;14;
70255;PMS5003;57669;52.624;-1.688;2023-01-28T08:02:24;15;14;
70255;PMS5003;57669;52.624;-1.688;2023-01-28T08:04:50;13;13;
70255;PMS5003;57669;52.624;-1.688;2023-01-28T08:07:16;14;14;
70255;PMS5003;57669;52.624;-1.688;2023-01-28T08:09:42;12;12;
70255;PMS5003;57669;52.624;-1.688;2023-01-28T08:12:06;12;11;
70255;PMS5003;57669;52.624;-1.688;2023-01-28T08:14:32;11;11;
70255;PMS5003;57669;52.624;-1.688;2023-01-28T08:16:58;11;11;
70255;PMS5003;57669;52.624;-1.688;2023-01-28T08:19:24;12;11;
70255;PMS5003;57669;52.624;-1.688;2023-01-28T08:21:50;15;14;
70255;PMS5003;57669;52.624;-1.688;2023-01-28T08:24:16;18;16;
70255;PMS5003;57669;52.624;-1.688;2023-01-28T08:26:47;13;11;
70255;PMS5003;57669;52.624;-1.688;2023-01-28T08:29:06;12;12;
70255;PMS5003;57669;52.624;-1.688;2023-01-28T08:31:31;13;13;
70255;PMS5003;57669;52.624;-1.688;2023-01-28T08:33:56;15;15;
70255;PMS5003;57669;52.624;-1.688;2023-01-28T08:36:22;9;9;
70255;PMS5003;57669;52.624;-1.688;2023-01-28T08:38:50;12;12;
70255;PMS5003;57669;52.624;-1.688;2023-01-28T08:41:12;16;14;
70255;PMS5003;57669;52.624;-1.688;2023-01-28T08:43:38;18;16;
70255;PMS5003;57669;52.624;-1.688;2023-01-28T08:46:04;11;10;
70255;PMS5003;57669;52.624;-1.688;2023-01-28T08:48:29;11;11;
70255;PMS5003;57669;52.624;-1.688;2023-01-28T08:50:57;13;11;
70255;PMS5003;57669;52.624;-1.688;2023-01-28T08:53:20;14;14;
70255;PMS5003;57669;52.624;-1.688;2023-01-28T08:55:45;16;14;
70255;PMS5003;57669;52.624;-1.688;2023-01-28T08:58:12;12;11;
70255;PMS5003;57669;52.624;-1.688;2023-01-28T09:00:37;17;15;
70255;PMS5003;57669;52.624;-1.688;2023-01-28T09:03:01;10;9;
70255;PMS5003;57669;52.624;-1.688;2023-01-28T09:05:27;15;15;
70255;PMS5003;57669;52.624;-1.688;2023-01-28T09:07:52;13;12;
70255;PMS5003;57669;52.624;-1.688;2023-01-28T09:10:18;16;16;
70255;PMS5003;57669;52.624;-1.688;2023-01-28T09:12:44;11;10;
70255;PMS5003;57669;52.624;-1.688;2023-01-28T09:15:10;15;15;
70255;PMS5003;57669;52.624;-1.688;2023-01-28T09:17:35;17;16;
70255;PMS5003;57669;52.624;-1.688;2023-01-28T09:20:00;24;22;
70255;PMS5003;57669;52.624;-1.688;2023-01-28T09:22:25;25;25;
70255;PMS5003;57669;52.624;-1.688;2023-01-28T09:24:50;23;23;
70255;PMS5003;57669;52.624;-1.688;2023-01-28T09:27:16;24;22;
70255;PMS5003;57669;52.624;-1.688;2023-01-28T09:29:42;22;21;
70255;PMS5003;57669;52.624;-1.688;2023-01-28T09:32:08;21;19;
70255;PMS5003;57669;52.624;-1.688;2023-01-28T09:34:33;24;22;
70255;PMS5003;57669;52.624;-1.688;2023-01-28T09:36:59;26;24;
70255;PMS5003;57669;52.624;-1.688;2023-01-28T09:39:25;18;17;
70255;PMS5003;57669;52.624;-1.688;2023-01-28T09:41:52;12;12;
70255;PMS5003;57669;52.624;-1.688;2023-01-28T09:44:21;12;12;
70255;PMS5003;57669;52.624;-1.688;2023-01-28T09:46:42;15;15;
70255;PMS5003;57669;52.624;-1.688;2023-01-28T09:49:11;12;11;
70255;PMS5003;57669;52.624;-1.688;2023-01-28T09:51:34;19;17;
70255;PMS5003;57669;52.624;-1.688;2023-01-28T09:53:59;17;16;
70255;PMS5003;57669;52.624;-1.688;2023-01-28T09:56:24;13;12;
70255;PMS5003;57669;52.624;-1.688;2023-01-28T09:58:50;17;17;
70255;PMS5003;57669;52.624;-1.688;2023-01-28T10:01:21;14;14;
70255;PMS5003;57669;52.624;-1.688;2023-01-28T10:03:44;11;11;
70255;PMS5003;57669;52.624;-1.688;2023-01-28T10:06:10;13;13;
70255;PMS5003;57669;52.624;-1.688;2023-01-28T10:08:36;11;11;
70255;PMS5003;57669;52.624;-1.688;2023-01-28T10:10:59;15;15;
70255;PMS5003;57669;52.624;-1.688;2023-01-28T10:15:49;17;16;
70255;PMS5003;57669;52.624;-1.688;2023-01-28T10:18:14;13;11;
70255;PMS5003;57669;52.624;-1.688;2023-01-28T10:20:40;14;12;
70255;PMS5003;57669;52.624;-1.688;2023-01-28T10:23:05;15;15;
70255;PMS5003;57669;52.624;-1.688;2023-01-28T10:25:30;14;14;
70255;PMS5003;57669;52.624;-1.688;2023-01-28T10:27:56;11;11;
70255;PMS5003;57669;52.624;-1.688;2023-01-28T10:30:23;13;12;
70255;PMS5003;57669;52.624;-1.688;2023-01-28T10:32:49;16;15;
70255;PMS5003;57669;52.624;-1.688;2023-01-28T10:35:13;14;14;
70255;PMS5003;57669;52.624;-1.688;2023-01-28T10:37:38;11;10;
70255;PMS5003;57669;52.624;-1.688;2023-01-28T10:40:04;13;13;
70255;PMS5003;57669;52.624;-1.688;2023-01-28T10:42:30;11;11;
70255;PMS5003;57669;52.624;-1.688;2023-01-28T10:44:56;14;13;
70255;PMS5003;57669;52.624;-1.688;2023-01-28T10:47:25;17;14;
70255;PMS5003;57669;52.624;-1.688;2023-01-28T10:49:47;14;13;
70255;PMS5003;57669;52.624;-1.688;2023-01-28T10:52:12;15;14;
70255;PMS5003;57669;52.624;-1.688;2023-01-28T10:54:37;12;12;
70255;PMS5003;57669;52.624;-1.688;2023-01-28T10:57:04;14;13;
70255;PMS5003;57669;52.624;-1.688;2023-01-28T10:59:29;13;11;
70255;PMS5003;57669;52.624;-1.688;2023-01-28T11:01:56;17;17;
70255;PMS5003;57669;52.624;-1.688;2023-01-28T11:04:22;18;17;
70255;PMS5003;57669;52.624;-1.688;2023-01-28T11:11:36;16;14;
70255;PMS5003;57669;52.624;-1.688;2023-01-28T11:14:01;18;18;
70255;PMS5003;57669;52.624;-1.688;2023-01-28T11:16:27;16;15;
70255;PMS5003;57669;52.624;-1.688;2023-01-28T11:18:54;18;16;
70255;PMS5003;57669;52.624;-1.688;2023-01-28T11:21:19;13;13;
70255;PMS5003;57669;52.624;-1.688;2023-01-28T11:23:47;14;13;
70255;PMS5003;57669;52.624;-1.688;2023-01-28T11:26:13;17;16;
70255;PMS5003;57669;52.624;-1.688;2023-01-28T11:28:39;13;13;
70255;PMS5003;57669;52.624;-1.688;2023-01-28T11:31:01;16;15;
70255;PMS5003;57669;52.624;-1.688;2023-01-28T11:33:29;15;14;
70255;PMS5003;57669;52.624;-1.688;2023-01-28T11:35:53;16;16;
70255;PMS5003;57669;52.624;-1.688;2023-01-28T11:38:18;16;15;
70255;PMS5003;57669;52.624;-1.688;2023-01-28T11:43:08;14;14;
70255;PMS5003;57669;52.624;-1.688;2023-01-28T11:45:36;14;14;
70255;PMS5003;57669;52.624;-1.688;2023-01-28T11:50:29;15;15;
70255;PMS5003;57669;52.624;-1.688;2023-01-28T11:52:54;17;15;
70255;PMS5003;57669;52.624;-1.688;2023-01-28T11:55:19;13;13;
70255;PMS5003;57669;52.624;-1.688;2023-01-28T11:57:44;13;13;
70255;PMS5003;57669;52.624;-1.688;2023-01-28T12:00:14;12;12;
70255;PMS5003;57669;52.624;-1.688;2023-01-28T12:02:37;16;15;
70255;PMS5003;57669;52.624;-1.688;2023-01-28T12:05:03;14;14;
70255;PMS5003;57669;52.624;-1.688;2023-01-28T12:07:27;16;15;
70255;PMS5003;57669;52.624;-1.688;2023-01-28T12:09:52;12;12;
70255;PMS5003;57669;52.624;-1.688;2023-01-28T12:12:19;13;13;
70255;PMS5003;57669;52.624;-1.688;2023-01-28T12:14:45;15;15;
70255;PMS5003;57669;52.624;-1.688;2023-01-28T12:17:10;20;18;
70255;PMS5003;57669;52.624;-1.688;2023-01-28T12:19:36;14;14;
70255;PMS5003;57669;52.624;-1.688;2023-01-28T12:22:02;16;15;
70255;PMS5003;57669;52.624;-1.688;2023-01-28T12:24:27;14;13;
70255;PMS5003;57669;52.624;-1.688;2023-01-28T12:26:50;12;11;
70255;PMS5003;57669;52.624;-1.688;2023-01-28T12:29:17;15;15;
70255;PMS5003;57669;52.624;-1.688;2023-01-28T12:31:46;14;12;
70255;PMS5003;57669;52.624;-1.688;2023-01-28T12:36:35;13;13;
70255;PMS5003;57669;52.624;-1.688;2023-01-28T12:38:59;14;13;
70255;PMS5003;57669;52.624;-1.688;2023-01-28T12:41:22;16;14;
70255;PMS5003;57669;52.624;-1.688;2023-01-28T12:43:50;14;13;
70255;PMS5003;57669;52.624;-1.688;2023-01-28T12:46:20;13;11;
70255;PMS5003;57669;52.624;-1.688;2023-01-28T12:48:40;17;17;
70255;PMS5003;57669;52.624;-1.688;2023-01-28T12:51:06;17;16;
70255;PMS5003;57669;52.624;-1.688;2023-01-28T12:53:31;12;11;
70255;PMS5003;57669;52.624;-1.688;2023-01-28T12:55:56;13;12;
70255;PMS5003;57669;52.624;-1.688;2023-01-28T12:58:22;13;11;
70255;PMS5003;57669;52.624;-1.688;2023-01-28T13:00:47;12;12;
70255;PMS5003;57669;52.624;-1.688;2023-01-28T13:03:15;12;12;
70255;PMS5003;57669;52.624;-1.688;2023-01-28T13:05:38;14;14;
70255;PMS5003;57669;52.624;-1.688;2023-01-28T13:08:04;13;13;
70255;PMS5003;57669;52.624;-1.688;2023-01-28T13:10:29;12;12;
70255;PMS5003;57669;52.624;-1.688;2023-01-28T13:12:53;17;17;
70255;PMS5003;57669;52.624;-1.688;2023-01-28T13:15:19;13;12;
70255;PMS5003;57669;52.624;-1.688;2023-01-28T13:20:14;14;13;
70255;PMS5003;57669;52.624;-1.688;2023-01-28T13:22:35;14;13;
70255;PMS5003;57669;52.624;-1.688;2023-01-28T13:27:26;20;17;
70255;PMS5003;57669;52.624;-1.688;2023-01-28T13:34:42;22;21;
70255;PMS5003;57669;52.624;-1.688;2023-01-28T13:39:33;20;19;
70255;PMS5003;57669;52.624;-1.688;2023-01-28T13:44:26;20;19;
70255;PMS5003;57669;52.624;-1.688;2023-01-28T13:46:50;20;17;
70255;PMS5003;57669;52.624;-1.688;2023-01-28T13:49:21;17;16;
70255;PMS5003;57669;52.624;-1.688;2023-01-28T13:51:44;18;18;
70255;PMS5003;57669;52.624;-1.688;2023-01-28T13:54:06;22;18;
70255;PMS5003;57669;52.624;-1.688;2023-01-28T13:56:36;21;21;
70255;PMS5003;57669;52.624;-1.688;2023-01-28T14:01:26;17;17;
70255;PMS5003;57669;52.624;-1.688;2023-01-28T14:08:42;24;24;
70255;PMS5003;57669;52.624;-1.688;2023-01-28T14:11:08;19;19;
70255;PMS5003;57669;52.624;-1.688;2023-01-28T14:13:32;22;22;
70255;PMS5003;57669;52.624;-1.688;2023-01-28T14:15:56;21;20;
70255;PMS5003;57669;52.624;-1.688;2023-01-28T14:18:22;18;17;
70255;PMS5003;57669;52.624;-1.688;2023-01-28T14:20:45;19;19;
70255;PMS5003;57669;52.624;-1.688;2023-01-28T14:23:13;19;19;
70255;PMS5003;57669;52.624;-1.688;2023-01-28T14:25:38;20;18;
70255;PMS5003;57669;52.624;-1.688;2023-01-28T14:28:02;21;19;
70255;PMS5003;57669;52.624;-1.688;2023-01-28T14:30:28;21;21;
70255;PMS5003;57669;52.624;-1.688;2023-01-28T14:32:53;20;20;
70255;PMS5003;57669;52.624;-1.688;2023-01-28T14:35:21;21;20;
70255;PMS5003;57669;52.624;-1.688;2023-01-28T14:37:44;19;19;
70255;PMS5003;57669;52.624;-1.688;2023-01-28T14:40:11;22;21;
70255;PMS5003;57669;52.624;-1.688;2023-01-28T14:42:35;23;23;
70255;PMS5003;57669;52.624;-1.688;2023-01-28T14:45:06;22;19;
70255;PMS5003;57669;52.624;-1.688;2023-01-28T14:47:31;25;23;
70255;PMS5003;57669;52.624;-1.688;2023-01-28T14:49:56;21;21;
70255;PMS5003;57669;52.624;-1.688;2023-01-28T14:52:22;19;18;
70255;PMS5003;57669;52.624;-1.688;2023-01-28T14:54:46;20;19;
70255;PMS5003;57669;52.624;-1.688;2023-01-28T14:57:13;21;21;
70255;PMS5003;57669;52.624;-1.688;2023-01-28T14:59:35;19;18;
70255;PMS5003;57669;52.624;-1.688;2023-01-28T15:01:58;18;17;
70255;PMS5003;57669;52.624;-1.688;2023-01-28T15:04:24;22;19;
70255;PMS5003;57669;52.624;-1.688;2023-01-28T15:06:49;27;25;
70255;PMS5003;57669;52.624;-1.688;2023-01-28T15:09:15;17;17;
70255;PMS5003;57669;52.624;-1.688;2023-01-28T15:11:41;21;19;
70255;PMS5003;57669;52.624;-1.688;2023-01-28T15:14:09;19;18;
70255;PMS5003;57669;52.624;-1.688;2023-01-28T15:16:31;18;18;
70255;PMS5003;57669;52.624;-1.688;2023-01-28T15:18:58;20;17;
70255;PMS5003;57669;52.624;-1.688;2023-01-28T15:21:23;16;16;
70255;PMS5003;57669;52.624;-1.688;2023-01-28T15:23:48;22;20;
70255;PMS5003;57669;52.624;-1.688;2023-01-28T15:26:14;21;21;
70255;PMS5003;57669;52.624;-1.688;2023-01-28T15:28:39;22;22;
70255;PMS5003;57669;52.624;-1.688;2023-01-28T15:31:05;20;19;
70255;PMS5003;57669;52.624;-1.688;2023-01-28T15:33:30;25;25;
70255;PMS5003;57669;52.624;-1.688;2023-01-28T15:35:56;22;21;
70255;PMS5003;57669;52.624;-1.688;2023-01-28T15:38:22;17;16;
70255;PMS5003;57669;52.624;-1.688;2023-01-28T15:40:49;17;17;
70255;PMS5003;57669;52.624;-1.688;2023-01-28T15:43:15;20;20;
70255;PMS5003;57669;52.624;-1.688;2023-01-28T15:45:39;19;19;
70255;PMS5003;57669;52.624;-1.688;2023-01-28T15:48:04;19;19;
70255;PMS5003;57669;52.624;-1.688;2023-01-28T15:50:29;21;20;
70255;PMS5003;57669;52.624;-1.688;2023-01-28T15:52:55;20;19;
70255;PMS5003;57669;52.624;-1.688;2023-01-28T15:57:46;24;23;
70255;PMS5003;57669;52.624;-1.688;2023-01-28T16:00:12;19;19;
70255;PMS5003;57669;52.624;-1.688;2023-01-28T16:05:04;25;25;
70255;PMS5003;57669;52.624;-1.688;2023-01-28T16:07:29;19;19;
70255;PMS5003;57669;52.624;-1.688;2023-01-28T16:09:55;28;26;
70255;PMS5003;57669;52.624;-1.688;2023-01-28T16:12:19;27;26;
70255;PMS5003;57669;52.624;-1.688;2023-01-28T16:14:45;31;30;
70255;PMS5003;57669;52.624;-1.688;2023-01-28T16:17:10;43;40;
70255;PMS5003;57669;52.624;-1.688;2023-01-28T16:19:36;43;41;
70255;PMS5003;57669;52.624;-1.688;2023-01-28T16:22:00;43;41;
70255;PMS5003;57669;52.624;-1.688;2023-01-28T16:24:26;40;39;
70255;PMS5003;57669;52.624;-1.688;2023-01-28T16:26:55;42;37;
70255;PMS5003;57669;52.624;-1.688;2023-01-28T16:29:16;37;37;
70255;PMS5003;57669;52.624;-1.688;2023-01-28T16:31:41;39;36;
70255;PMS5003;57669;52.624;-1.688;2023-01-28T16:34:06;45;41;
70255;PMS5003;57669;52.624;-1.688;2023-01-28T16:36:32;32;31;
70255;PMS5003;57669;52.624;-1.688;2023-01-28T16:38:57;44;43;
70255;PMS5003;57669;52.624;-1.688;2023-01-28T16:41:24;39;37;
70255;PMS5003;57669;52.624;-1.688;2023-01-28T16:43:48;36;35;
70255;PMS5003;57669;52.624;-1.688;2023-01-28T16:46:14;43;39;
70255;PMS5003;57669;52.624;-1.688;2023-01-28T16:48:39;47;46;